KLRU

Las Cruces International Airport

Las Cruces, New Mexico, USA
METAR KLRU 151915Z AUTO 00000KT 10SM CLR 09/M07 A3031 RMK AO2 T00851067
Observed Flight Rules
Dec-15 @ 19:15 UTC (16 minutes ago) Visual Flight Rules
Wind Visibility Clouds
Calm 10 miles
  • Clear skies
Temperatures Readings
Current 9°C / 48°F
Dewpoint -7°C / 19°F
Humidity 32%
Altimeter 30.31" Hg
Pressure 1026 hPa
Elevation 1358
METAR KLRU 151915Z AUTO 00000KT 10SM CLR 09/M07 A3031 RMK AO2 T00851067
Observed Flight Rules
Dec-15 @ 19:15 UTC
(16 minutes ago)
VFR
Wind Visibility
Calm 10 miles
Clouds
  • Clear skies
Temperature Dewpoint
9°C / 48°F -7°C / 19°F
Humidity Altimeter Pressure
32% 30.31" Hg 1026 hPa